sensor_id;sensor_type;location;lat;lon;timestamp;P1;durP1;ratioP1;P2;durP2;ratioP2
20076;SDS011;12348;42.710;23.378;2023-05-07T00:03:09;18.70;;;13.07;;
20076;SDS011;12348;42.710;23.378;2023-05-07T00:05:38;22.97;;;13.17;;
20076;SDS011;12348;42.710;23.378;2023-05-07T00:08:06;18.80;;;12.83;;
20076;SDS011;12348;42.710;23.378;2023-05-07T00:10:33;16.47;;;11.83;;
20076;SDS011;12348;42.710;23.378;2023-05-07T00:13:00;21.73;;;12.70;;
20076;SDS011;12348;42.710;23.378;2023-05-07T00:15:27;22.10;;;12.90;;
20076;SDS011;12348;42.710;23.378;2023-05-07T00:17:53;25.67;;;14.30;;
20076;SDS011;12348;42.710;23.378;2023-05-07T00:20:22;20.03;;;13.07;;
20076;SDS011;12348;42.710;23.378;2023-05-07T00:22:49;26.23;;;13.27;;
20076;SDS011;12348;42.710;23.378;2023-05-07T00:25:16;18.80;;;11.97;;
20076;SDS011;12348;42.710;23.378;2023-05-07T00:27:44;17.00;;;10.17;;
20076;SDS011;12348;42.710;23.378;2023-05-07T00:30:11;14.23;;;10.47;;
20076;SDS011;12348;42.710;23.378;2023-05-07T00:32:38;13.47;;;8.67;;
20076;SDS011;12348;42.710;23.378;2023-05-07T00:35:05;13.33;;;8.70;;
20076;SDS011;12348;42.710;23.378;2023-05-07T00:37:35;13.63;;;8.70;;
20076;SDS011;12348;42.710;23.378;2023-05-07T00:40:02;15.70;;;9.07;;
20076;SDS011;12348;42.710;23.378;2023-05-07T00:42:32;12.67;;;8.53;;
20076;SDS011;12348;42.710;23.378;2023-05-07T00:44:58;14.33;;;8.67;;
20076;SDS011;12348;42.710;23.378;2023-05-07T00:47:25;16.83;;;8.37;;
20076;SDS011;12348;42.710;23.378;2023-05-07T00:49:52;14.43;;;8.13;;
20076;SDS011;12348;42.710;23.378;2023-05-07T00:52:19;14.33;;;8.13;;
20076;SDS011;12348;42.710;23.378;2023-05-07T00:54:51;17.07;;;9.63;;
20076;SDS011;12348;42.710;23.378;2023-05-07T00:57:18;11.87;;;8.13;;
20076;SDS011;12348;42.710;23.378;2023-05-07T00:59:46;15.57;;;7.87;;
20076;SDS011;12348;42.710;23.378;2023-05-07T01:02:14;12.13;;;7.63;;
20076;SDS011;12348;42.710;23.378;2023-05-07T01:04:41;9.63;;;6.47;;
20076;SDS011;12348;42.710;23.378;2023-05-07T01:07:08;12.70;;;7.80;;
20076;SDS011;12348;42.710;23.378;2023-05-07T01:09:35;12.80;;;7.57;;
20076;SDS011;12348;42.710;23.378;2023-05-07T01:12:04;12.33;;;7.33;;
20076;SDS011;12348;42.710;23.378;2023-05-07T01:14:32;11.13;;;7.37;;
20076;SDS011;12348;42.710;23.378;2023-05-07T01:16:59;13.07;;;7.50;;
20076;SDS011;12348;42.710;23.378;2023-05-07T01:19:26;12.57;;;8.03;;
20076;SDS011;12348;42.710;23.378;2023-05-07T01:21:56;10.07;;;7.70;;
20076;SDS011;12348;42.710;23.378;2023-05-07T01:24:31;13.10;;;6.93;;
20076;SDS011;12348;42.710;23.378;2023-05-07T01:26:58;9.93;;;7.10;;
20076;SDS011;12348;42.710;23.378;2023-05-07T01:29:26;10.13;;;7.67;;
20076;SDS011;12348;42.710;23.378;2023-05-07T01:31:54;13.13;;;7.40;;
20076;SDS011;12348;42.710;23.378;2023-05-07T01:34:22;13.77;;;7.27;;
20076;SDS011;12348;42.710;23.378;2023-05-07T01:36:52;13.60;;;7.20;;
20076;SDS011;12348;42.710;23.378;2023-05-07T01:39:20;12.70;;;6.87;;
20076;SDS011;12348;42.710;23.378;2023-05-07T01:41:50;11.57;;;7.47;;
20076;SDS011;12348;42.710;23.378;2023-05-07T01:44:17;14.47;;;7.10;;
20076;SDS011;12348;42.710;23.378;2023-05-07T01:46:45;11.07;;;7.67;;
20076;SDS011;12348;42.710;23.378;2023-05-07T01:49:14;13.33;;;8.73;;
20076;SDS011;12348;42.710;23.378;2023-05-07T01:51:41;11.20;;;7.53;;
20076;SDS011;12348;42.710;23.378;2023-05-07T01:54:08;10.93;;;8.47;;
20076;SDS011;12348;42.710;23.378;2023-05-07T01:56:35;12.23;;;8.17;;
20076;SDS011;12348;42.710;23.378;2023-05-07T01:59:03;13.53;;;8.23;;
20076;SDS011;12348;42.710;23.378;2023-05-07T02:01:30;11.40;;;7.57;;
20076;SDS011;12348;42.710;23.378;2023-05-07T02:03:57;13.60;;;8.97;;
20076;SDS011;12348;42.710;23.378;2023-05-07T02:06:23;11.17;;;7.37;;
20076;SDS011;12348;42.710;23.378;2023-05-07T02:08:50;13.70;;;7.00;;
20076;SDS011;12348;42.710;23.378;2023-05-07T02:11:17;12.43;;;8.10;;
20076;SDS011;12348;42.710;23.378;2023-05-07T02:13:45;12.17;;;8.50;;
20076;SDS011;12348;42.710;23.378;2023-05-07T02:16:13;18.07;;;8.57;;
20076;SDS011;12348;42.710;23.378;2023-05-07T02:18:40;13.27;;;8.30;;
20076;SDS011;12348;42.710;23.378;2023-05-07T02:21:07;13.87;;;8.90;;
20076;SDS011;12348;42.710;23.378;2023-05-07T02:23:34;14.77;;;8.43;;
20076;SDS011;12348;42.710;23.378;2023-05-07T02:26:00;14.03;;;8.93;;
20076;SDS011;12348;42.710;23.378;2023-05-07T02:28:27;16.03;;;9.57;;
20076;SDS011;12348;42.710;23.378;2023-05-07T02:30:54;13.53;;;8.83;;
20076;SDS011;12348;42.710;23.378;2023-05-07T02:33:24;13.13;;;8.93;;
20076;SDS011;12348;42.710;23.378;2023-05-07T02:35:51;13.03;;;8.07;;
20076;SDS011;12348;42.710;23.378;2023-05-07T02:38:18;13.37;;;9.20;;
20076;SDS011;12348;42.710;23.378;2023-05-07T02:40:45;14.60;;;9.27;;
20076;SDS011;12348;42.710;23.378;2023-05-07T02:43:12;14.53;;;9.03;;
20076;SDS011;12348;42.710;23.378;2023-05-07T02:45:39;12.40;;;8.97;;
20076;SDS011;12348;42.710;23.378;2023-05-07T02:48:05;13.40;;;9.13;;
20076;SDS011;12348;42.710;23.378;2023-05-07T02:50:34;13.50;;;8.57;;
20076;SDS011;12348;42.710;23.378;2023-05-07T02:53:00;13.50;;;8.53;;
20076;SDS011;12348;42.710;23.378;2023-05-07T02:55:27;14.73;;;8.90;;
20076;SDS011;12348;42.710;23.378;2023-05-07T02:57:54;15.93;;;9.97;;
20076;SDS011;12348;42.710;23.378;2023-05-07T03:00:21;15.30;;;9.87;;
20076;SDS011;12348;42.710;23.378;2023-05-07T03:02:48;17.20;;;9.93;;
20076;SDS011;12348;42.710;23.378;2023-05-07T03:05:15;12.23;;;9.53;;
20076;SDS011;12348;42.710;23.378;2023-05-07T03:07:43;18.13;;;10.57;;
20076;SDS011;12348;42.710;23.378;2023-05-07T03:10:11;14.67;;;9.50;;
20076;SDS011;12348;42.710;23.378;2023-05-07T03:12:38;21.17;;;12.07;;
20076;SDS011;12348;42.710;23.378;2023-05-07T03:15:05;18.47;;;10.37;;
20076;SDS011;12348;42.710;23.378;2023-05-07T03:17:33;20.97;;;11.03;;
20076;SDS011;12348;42.710;23.378;2023-05-07T03:20:00;17.53;;;11.07;;
20076;SDS011;12348;42.710;23.378;2023-05-07T03:22:27;23.10;;;12.60;;
20076;SDS011;12348;42.710;23.378;2023-05-07T03:24:55;19.80;;;13.00;;
20076;SDS011;12348;42.710;23.378;2023-05-07T03:27:22;16.93;;;11.73;;
20076;SDS011;12348;42.710;23.378;2023-05-07T03:29:49;21.00;;;12.27;;
20076;SDS011;12348;42.710;23.378;2023-05-07T03:32:15;20.00;;;12.60;;
20076;SDS011;12348;42.710;23.378;2023-05-07T03:34:42;21.67;;;13.53;;
20076;SDS011;12348;42.710;23.378;2023-05-07T03:37:09;23.37;;;13.07;;
20076;SDS011;12348;42.710;23.378;2023-05-07T03:39:36;27.73;;;13.30;;
20076;SDS011;12348;42.710;23.378;2023-05-07T03:42:04;24.03;;;13.90;;
20076;SDS011;12348;42.710;23.378;2023-05-07T03:44:31;22.20;;;12.90;;
20076;SDS011;12348;42.710;23.378;2023-05-07T03:46:58;18.57;;;13.23;;
20076;SDS011;12348;42.710;23.378;2023-05-07T03:49:25;21.30;;;12.07;;
20076;SDS011;12348;42.710;23.378;2023-05-07T03:51:51;18.30;;;9.97;;
20076;SDS011;12348;42.710;23.378;2023-05-07T03:54:18;11.87;;;8.40;;
20076;SDS011;12348;42.710;23.378;2023-05-07T03:56:45;14.80;;;8.50;;
20076;SDS011;12348;42.710;23.378;2023-05-07T03:59:13;13.03;;;7.80;;
20076;SDS011;12348;42.710;23.378;2023-05-07T04:01:40;17.40;;;8.27;;
20076;SDS011;12348;42.710;23.378;2023-05-07T04:04:07;11.83;;;6.97;;
20076;SDS011;12348;42.710;23.378;2023-05-07T04:06:34;11.10;;;7.73;;
20076;SDS011;12348;42.710;23.378;2023-05-07T04:09:01;9.87;;;7.83;;
20076;SDS011;12348;42.710;23.378;2023-05-07T04:11:28;15.07;;;7.93;;
20076;SDS011;12348;42.710;23.378;2023-05-07T04:13:55;14.13;;;7.87;;
20076;SDS011;12348;42.710;23.378;2023-05-07T04:16:24;11.27;;;7.67;;
20076;SDS011;12348;42.710;23.378;2023-05-07T04:18:51;11.20;;;7.27;;
20076;SDS011;12348;42.710;23.378;2023-05-07T04:21:18;12.33;;;8.40;;
20076;SDS011;12348;42.710;23.378;2023-05-07T04:23:47;12.40;;;8.07;;
20076;SDS011;12348;42.710;23.378;2023-05-07T04:26:14;11.70;;;7.87;;
20076;SDS011;12348;42.710;23.378;2023-05-07T04:28:42;12.57;;;8.73;;
20076;SDS011;12348;42.710;23.378;2023-05-07T04:31:09;14.63;;;8.47;;
20076;SDS011;12348;42.710;23.378;2023-05-07T04:33:37;13.80;;;8.50;;
20076;SDS011;12348;42.710;23.378;2023-05-07T04:36:04;13.37;;;7.60;;
20076;SDS011;12348;42.710;23.378;2023-05-07T04:38:31;13.23;;;8.17;;
20076;SDS011;12348;42.710;23.378;2023-05-07T04:41:02;10.67;;;7.80;;
20076;SDS011;12348;42.710;23.378;2023-05-07T04:43:30;11.77;;;7.57;;
20076;SDS011;12348;42.710;23.378;2023-05-07T04:45:57;16.17;;;8.60;;
20076;SDS011;12348;42.710;23.378;2023-05-07T04:48:24;17.00;;;8.77;;
20076;SDS011;12348;42.710;23.378;2023-05-07T04:50:52;14.53;;;8.80;;
20076;SDS011;12348;42.710;23.378;2023-05-07T04:53:19;17.13;;;8.53;;
20076;SDS011;12348;42.710;23.378;2023-05-07T04:55:47;22.50;;;10.03;;
20076;SDS011;12348;42.710;23.378;2023-05-07T04:58:14;21.40;;;9.77;;
20076;SDS011;12348;42.710;23.378;2023-05-07T05:00:41;11.73;;;7.93;;
20076;SDS011;12348;42.710;23.378;2023-05-07T05:03:08;17.40;;;7.40;;
20076;SDS011;12348;42.710;23.378;2023-05-07T05:05:35;13.00;;;7.33;;
20076;SDS011;12348;42.710;23.378;2023-05-07T05:08:05;17.23;;;7.30;;
20076;SDS011;12348;42.710;23.378;2023-05-07T05:10:35;11.97;;;7.07;;
20076;SDS011;12348;42.710;23.378;2023-05-07T05:13:02;12.70;;;6.80;;
20076;SDS011;12348;42.710;23.378;2023-05-07T05:15:28;12.70;;;7.30;;
20076;SDS011;12348;42.710;23.378;2023-05-07T05:17:55;12.17;;;7.03;;
20076;SDS011;12348;42.710;23.378;2023-05-07T05:20:22;9.83;;;6.70;;
20076;SDS011;12348;42.710;23.378;2023-05-07T05:22:49;8.87;;;7.33;;
20076;SDS011;12348;42.710;23.378;2023-05-07T05:25:17;12.13;;;7.47;;
20076;SDS011;12348;42.710;23.378;2023-05-07T05:27:44;12.33;;;8.40;;
20076;SDS011;12348;42.710;23.378;2023-05-07T05:30:11;13.07;;;8.17;;
20076;SDS011;12348;42.710;23.378;2023-05-07T05:32:39;13.93;;;8.60;;
20076;SDS011;12348;42.710;23.378;2023-05-07T05:35:06;13.67;;;8.70;;
20076;SDS011;12348;42.710;23.378;2023-05-07T05:37:33;15.30;;;8.00;;
20076;SDS011;12348;42.710;23.378;2023-05-07T05:40:00;16.43;;;8.33;;
20076;SDS011;12348;42.710;23.378;2023-05-07T05:42:28;10.90;;;8.10;;
20076;SDS011;12348;42.710;23.378;2023-05-07T05:44:55;14.43;;;8.70;;
20076;SDS011;12348;42.710;23.378;2023-05-07T05:47:22;11.90;;;8.40;;
20076;SDS011;12348;42.710;23.378;2023-05-07T05:49:49;9.93;;;8.07;;
20076;SDS011;12348;42.710;23.378;2023-05-07T05:52:16;14.13;;;9.07;;
20076;SDS011;12348;42.710;23.378;2023-05-07T05:54:44;11.80;;;7.80;;
20076;SDS011;12348;42.710;23.378;2023-05-07T05:57:11;10.33;;;7.97;;
20076;SDS011;12348;42.710;23.378;2023-05-07T05:59:39;9.13;;;7.93;;
20076;SDS011;12348;42.710;23.378;2023-05-07T06:02:06;10.53;;;7.87;;
20076;SDS011;12348;42.710;23.378;2023-05-07T06:04:33;10.10;;;8.00;;
20076;SDS011;12348;42.710;23.378;2023-05-07T06:07:00;13.97;;;8.40;;
20076;SDS011;12348;42.710;23.378;2023-05-07T06:09:27;8.47;;;6.73;;
20076;SDS011;12348;42.710;23.378;2023-05-07T06:11:54;11.00;;;8.07;;
20076;SDS011;12348;42.710;23.378;2023-05-07T06:14:21;12.53;;;7.20;;
20076;SDS011;12348;42.710;23.378;2023-05-07T06:16:50;8.40;;;7.17;;
20076;SDS011;12348;42.710;23.378;2023-05-07T06:19:17;15.90;;;7.40;;
20076;SDS011;12348;42.710;23.378;2023-05-07T06:21:48;13.10;;;7.57;;
20076;SDS011;12348;42.710;23.378;2023-05-07T06:24:15;13.47;;;8.27;;
20076;SDS011;12348;42.710;23.378;2023-05-07T06:26:41;9.67;;;7.50;;
20076;SDS011;12348;42.710;23.378;2023-05-07T06:29:08;9.43;;;6.93;;
20076;SDS011;12348;42.710;23.378;2023-05-07T06:31:35;11.00;;;7.20;;
20076;SDS011;12348;42.710;23.378;2023-05-07T06:34:04;9.77;;;7.50;;
20076;SDS011;12348;42.710;23.378;2023-05-07T06:36:31;13.50;;;8.90;;
20076;SDS011;12348;42.710;23.378;2023-05-07T06:38:58;11.50;;;9.30;;
20076;SDS011;12348;42.710;23.378;2023-05-07T06:41:25;17.37;;;9.77;;
20076;SDS011;12348;42.710;23.378;2023-05-07T06:43:52;15.90;;;11.30;;
20076;SDS011;12348;42.710;23.378;2023-05-07T06:46:19;12.20;;;9.30;;
20076;SDS011;12348;42.710;23.378;2023-05-07T06:48:46;13.00;;;8.77;;
20076;SDS011;12348;42.710;23.378;2023-05-07T06:51:14;19.63;;;11.30;;
20076;SDS011;12348;42.710;23.378;2023-05-07T06:53:41;12.93;;;9.40;;
20076;SDS011;12348;42.710;23.378;2023-05-07T06:56:07;12.30;;;8.97;;
20076;SDS011;12348;42.710;23.378;2023-05-07T06:58:34;12.80;;;9.30;;
20076;SDS011;12348;42.710;23.378;2023-05-07T07:01:01;13.23;;;9.07;;
20076;SDS011;12348;42.710;23.378;2023-05-07T07:03:28;14.70;;;10.27;;
20076;SDS011;12348;42.710;23.378;2023-05-07T07:05:55;13.83;;;7.73;;
20076;SDS011;12348;42.710;23.378;2023-05-07T07:08:23;16.17;;;9.67;;
20076;SDS011;12348;42.710;23.378;2023-05-07T07:10:50;10.00;;;8.00;;
20076;SDS011;12348;42.710;23.378;2023-05-07T07:13:17;11.13;;;9.20;;
20076;SDS011;12348;42.710;23.378;2023-05-07T07:15:44;10.43;;;7.40;;
20076;SDS011;12348;42.710;23.378;2023-05-07T07:18:11;8.43;;;6.87;;
20076;SDS011;12348;42.710;23.378;2023-05-07T07:20:38;9.00;;;7.03;;
20076;SDS011;12348;42.710;23.378;2023-05-07T07:23:05;11.33;;;8.00;;
20076;SDS011;12348;42.710;23.378;2023-05-07T07:25:33;9.53;;;6.73;;
20076;SDS011;12348;42.710;23.378;2023-05-07T07:28:00;9.30;;;6.40;;
20076;SDS011;12348;42.710;23.378;2023-05-07T07:30:27;10.13;;;7.00;;
20076;SDS011;12348;42.710;23.378;2023-05-07T07:32:53;8.73;;;7.00;;
20076;SDS011;12348;42.710;23.378;2023-05-07T07:35:25;7.40;;;6.13;;
20076;SDS011;12348;42.710;23.378;2023-05-07T07:37:52;10.33;;;6.33;;
20076;SDS011;12348;42.710;23.378;2023-05-07T07:40:19;10.93;;;6.45;;
20076;SDS011;12348;42.710;23.378;2023-05-07T07:42:47;7.82;;;6.03;;
20076;SDS011;12348;42.710;23.378;2023-05-07T07:45:14;10.33;;;6.43;;
20076;SDS011;12348;42.710;23.378;2023-05-07T07:47:41;10.05;;;7.30;;
20076;SDS011;12348;42.710;23.378;2023-05-07T07:50:08;9.07;;;6.72;;
20076;SDS011;12348;42.710;23.378;2023-05-07T07:52:35;11.35;;;7.50;;
20076;SDS011;12348;42.710;23.378;2023-05-07T07:55:03;8.38;;;6.25;;
20076;SDS011;12348;42.710;23.378;2023-05-07T07:57:32;7.67;;;6.53;;
20076;SDS011;12348;42.710;23.378;2023-05-07T08:00:00;6.27;;;5.63;;
20076;SDS011;12348;42.710;23.378;2023-05-07T08:02:27;10.03;;;7.13;;
20076;SDS011;12348;42.710;23.378;2023-05-07T08:04:54;12.02;;;7.15;;
20076;SDS011;12348;42.710;23.378;2023-05-07T08:07:21;7.57;;;5.35;;
20076;SDS011;12348;42.710;23.378;2023-05-07T08:09:48;8.90;;;6.67;;
20076;SDS011;12348;42.710;23.378;2023-05-07T08:12:15;10.50;;;6.93;;
20076;SDS011;12348;42.710;23.378;2023-05-07T08:14:46;15.07;;;7.33;;
20076;SDS011;12348;42.710;23.378;2023-05-07T08:17:15;8.13;;;5.97;;
20076;SDS011;12348;42.710;23.378;2023-05-07T08:19:41;10.07;;;7.23;;
20076;SDS011;12348;42.710;23.378;2023-05-07T08:22:08;9.40;;;6.63;;
20076;SDS011;12348;42.710;23.378;2023-05-07T08:24:35;7.00;;;5.50;;
20076;SDS011;12348;42.710;23.378;2023-05-07T08:27:02;8.40;;;6.20;;
20076;SDS011;12348;42.710;23.378;2023-05-07T08:29:29;10.87;;;6.33;;
20076;SDS011;12348;42.710;23.378;2023-05-07T08:31:56;9.80;;;5.70;;
20076;SDS011;12348;42.710;23.378;2023-05-07T08:34:24;6.83;;;5.90;;
20076;SDS011;12348;42.710;23.378;2023-05-07T08:36:51;8.37;;;5.00;;
20076;SDS011;12348;42.710;23.378;2023-05-07T08:39:18;9.03;;;5.60;;
20076;SDS011;12348;42.710;23.378;2023-05-07T08:41:44;8.50;;;5.67;;
20076;SDS011;12348;42.710;23.378;2023-05-07T08:44:12;7.60;;;5.17;;
20076;SDS011;12348;42.710;23.378;2023-05-07T08:46:40;10.87;;;6.43;;
20076;SDS011;12348;42.710;23.378;2023-05-07T08:49:08;12.13;;;6.53;;
20076;SDS011;12348;42.710;23.378;2023-05-07T08:51:36;11.93;;;6.83;;
20076;SDS011;12348;42.710;23.378;2023-05-07T08:54:03;5.77;;;4.90;;
20076;SDS011;12348;42.710;23.378;2023-05-07T08:56:32;7.07;;;4.70;;
20076;SDS011;12348;42.710;23.378;2023-05-07T08:58:59;5.97;;;4.90;;
20076;SDS011;12348;42.710;23.378;2023-05-07T09:01:25;6.77;;;4.73;;
20076;SDS011;12348;42.710;23.378;2023-05-07T09:03:52;5.67;;;4.33;;
20076;SDS011;12348;42.710;23.378;2023-05-07T09:06:19;6.40;;;4.57;;
20076;SDS011;12348;42.710;23.378;2023-05-07T09:11:30;4.87;;;3.20;;
20076;SDS011;12348;42.710;23.378;2023-05-07T09:13:57;4.93;;;3.87;;
20076;SDS011;12348;42.710;23.378;2023-05-07T09:16:26;6.07;;;3.23;;
20076;SDS011;12348;42.710;23.378;2023-05-07T09:18:54;5.00;;;2.90;;
20076;SDS011;12348;42.710;23.378;2023-05-07T09:21:23;7.00;;;3.57;;
20076;SDS011;12348;42.710;23.378;2023-05-07T09:23:50;5.93;;;3.67;;
20076;SDS011;12348;42.710;23.378;2023-05-07T09:26:22;5.15;;;3.03;;
20076;SDS011;12348;42.710;23.378;2023-05-07T09:28:49;13.57;;;5.65;;
20076;SDS011;12348;42.710;23.378;2023-05-07T09:31:16;7.53;;;3.85;;
20076;SDS011;12348;42.710;23.378;2023-05-07T09:33:43;7.32;;;4.15;;
20076;SDS011;12348;42.710;23.378;2023-05-07T09:36:09;6.25;;;4.75;;
20076;SDS011;12348;42.710;23.378;2023-05-07T09:38:37;4.85;;;3.40;;
20076;SDS011;12348;42.710;23.378;2023-05-07T09:41:04;6.30;;;3.78;;
20076;SDS011;12348;42.710;23.378;2023-05-07T09:43:34;6.18;;;3.80;;
20076;SDS011;12348;42.710;23.378;2023-05-07T09:46:03;5.23;;;4.10;;
20076;SDS011;12348;42.710;23.378;2023-05-07T09:48:32;3.50;;;3.00;;
20076;SDS011;12348;42.710;23.378;2023-05-07T09:51:06;5.47;;;3.43;;
20076;SDS011;12348;42.710;23.378;2023-05-07T09:53:41;7.23;;;3.73;;
20076;SDS011;12348;42.710;23.378;2023-05-07T09:56:11;5.53;;;3.37;;
20076;SDS011;12348;42.710;23.378;2023-05-07T09:58:42;8.17;;;4.00;;
20076;SDS011;12348;42.710;23.378;2023-05-07T10:01:10;5.27;;;2.80;;
20076;SDS011;12348;42.710;23.378;2023-05-07T10:03:37;4.38;;;2.88;;
20076;SDS011;12348;42.710;23.378;2023-05-07T10:06:07;4.50;;;3.10;;
20076;SDS011;12348;42.710;23.378;2023-05-07T10:08:35;7.17;;;4.50;;
20076;SDS011;12348;42.710;23.378;2023-05-07T10:11:03;7.90;;;4.17;;
20076;SDS011;12348;42.710;23.378;2023-05-07T10:13:31;8.03;;;3.43;;
20076;SDS011;12348;42.710;23.378;2023-05-07T10:16:03;4.50;;;3.20;;
20076;SDS011;12348;42.710;23.378;2023-05-07T10:18:30;4.35;;;3.30;;
20076;SDS011;12348;42.710;23.378;2023-05-07T10:20:59;6.28;;;3.10;;
20076;SDS011;12348;42.710;23.378;2023-05-07T10:23:33;5.73;;;3.17;;
20076;SDS011;12348;42.710;23.378;2023-05-07T10:57:35;8.00;;;3.97;;
20076;SDS011;12348;42.710;23.378;2023-05-07T11:00:02;4.83;;;3.50;;
20076;SDS011;12348;42.710;23.378;2023-05-07T11:05:37;4.67;;;3.40;;
20076;SDS011;12348;42.710;23.378;2023-05-07T11:08:05;6.23;;;3.67;;
20076;SDS011;12348;42.710;23.378;2023-05-07T11:10:47;7.37;;;4.93;;
20076;SDS011;12348;42.710;23.378;2023-05-07T11:13:17;6.57;;;3.40;;
20076;SDS011;12348;42.710;23.378;2023-05-07T11:15:45;5.50;;;3.17;;
20076;SDS011;12348;42.710;23.378;2023-05-07T11:18:14;4.57;;;3.57;;
20076;SDS011;12348;42.710;23.378;2023-05-07T11:20:51;3.03;;;2.70;;
20076;SDS011;12348;42.710;23.378;2023-05-07T11:26:27;5.30;;;3.00;;
20076;SDS011;12348;42.710;23.378;2023-05-07T11:28:56;4.27;;;2.80;;
20076;SDS011;12348;42.710;23.378;2023-05-07T11:31:25;4.43;;;2.87;;
20076;SDS011;12348;42.710;23.378;2023-05-07T11:33:54;5.60;;;3.80;;
20076;SDS011;12348;42.710;23.378;2023-05-07T11:36:22;3.60;;;3.03;;
20076;SDS011;12348;42.710;23.378;2023-05-07T11:38:50;4.17;;;3.17;;
20076;SDS011;12348;42.710;23.378;2023-05-07T11:41:16;5.90;;;3.30;;
20076;SDS011;12348;42.710;23.378;2023-05-07T11:43:57;3.97;;;2.47;;
20076;SDS011;12348;42.710;23.378;2023-05-07T11:46:24;4.53;;;2.50;;
20076;SDS011;12348;42.710;23.378;2023-05-07T11:48:54;3.03;;;2.20;;
20076;SDS011;12348;42.710;23.378;2023-05-07T11:51:21;11.47;;;4.33;;
20076;SDS011;12348;42.710;23.378;2023-05-07T11:53:49;2.40;;;2.20;;
20076;SDS011;12348;42.710;23.378;2023-05-07T11:56:17;9.27;;;5.43;;
20076;SDS011;12348;42.710;23.378;2023-05-07T11:58:44;4.27;;;3.00;;
20076;SDS011;12348;42.710;23.378;2023-05-07T12:01:14;4.03;;;3.20;;
20076;SDS011;12348;42.710;23.378;2023-05-07T12:03:42;11.47;;;5.03;;
20076;SDS011;12348;42.710;23.378;2023-05-07T12:06:11;4.10;;;3.50;;
20076;SDS011;12348;42.710;23.378;2023-05-07T12:08:38;4.10;;;3.13;;
20076;SDS011;12348;42.710;23.378;2023-05-07T12:11:07;4.43;;;2.07;;
20076;SDS011;12348;42.710;23.378;2023-05-07T12:13:36;4.57;;;2.33;;
20076;SDS011;12348;42.710;23.378;2023-05-07T12:16:03;4.40;;;2.73;;
20076;SDS011;12348;42.710;23.378;2023-05-07T12:18:33;7.43;;;3.30;;
20076;SDS011;12348;42.710;23.378;2023-05-07T12:21:00;5.10;;;2.70;;
20076;SDS011;12348;42.710;23.378;2023-05-07T12:23:28;7.60;;;2.50;;
20076;SDS011;12348;42.710;23.378;2023-05-07T12:25:55;2.67;;;2.47;;
20076;SDS011;12348;42.710;23.378;2023-05-07T12:28:22;2.90;;;2.60;;
20076;SDS011;12348;42.710;23.378;2023-05-07T12:30:50;5.53;;;3.13;;
20076;SDS011;12348;42.710;23.378;2023-05-07T12:33:17;2.90;;;2.50;;
20076;SDS011;12348;42.710;23.378;2023-05-07T12:35:48;5.13;;;2.23;;
20076;SDS011;12348;42.710;23.378;2023-05-07T12:38:15;7.80;;;6.10;;
20076;SDS011;12348;42.710;23.378;2023-05-07T12:40:43;6.70;;;4.87;;
20076;SDS011;12348;42.710;23.378;2023-05-07T12:43:15;5.80;;;4.43;;
20076;SDS011;12348;42.710;23.378;2023-05-07T12:45:42;6.20;;;3.97;;
20076;SDS011;12348;42.710;23.378;2023-05-07T12:48:10;3.30;;;2.87;;
20076;SDS011;12348;42.710;23.378;2023-05-07T12:50:37;3.40;;;3.03;;
20076;SDS011;12348;42.710;23.378;2023-05-07T12:53:05;3.50;;;2.33;;
20076;SDS011;12348;42.710;23.378;2023-05-07T12:55:39;2.93;;;2.60;;
20076;SDS011;12348;42.710;23.378;2023-05-07T12:58:07;3.97;;;2.83;;
20076;SDS011;12348;42.710;23.378;2023-05-07T13:00:35;4.23;;;2.90;;
20076;SDS011;12348;42.710;23.378;2023-05-07T13:03:03;3.07;;;2.30;;
20076;SDS011;12348;42.710;23.378;2023-05-07T13:05:30;2.43;;;2.17;;
20076;SDS011;12348;42.710;23.378;2023-05-07T13:07:57;3.93;;;2.20;;
20076;SDS011;12348;42.710;23.378;2023-05-07T13:10:25;4.37;;;2.17;;
20076;SDS011;12348;42.710;23.378;2023-05-07T13:12:53;2.80;;;2.00;;
20076;SDS011;12348;42.710;23.378;2023-05-07T13:15:21;2.77;;;2.17;;
20076;SDS011;12348;42.710;23.378;2023-05-07T13:17:48;3.20;;;2.03;;
20076;SDS011;12348;42.710;23.378;2023-05-07T13:20:15;5.43;;;2.73;;
20076;SDS011;12348;42.710;23.378;2023-05-07T13:22:42;6.17;;;3.00;;
20076;SDS011;12348;42.710;23.378;2023-05-07T13:25:09;3.27;;;2.43;;
20076;SDS011;12348;42.710;23.378;2023-05-07T13:27:37;9.30;;;5.23;;
20076;SDS011;12348;42.710;23.378;2023-05-07T13:30:05;14.83;;;7.53;;
20076;SDS011;12348;42.710;23.378;2023-05-07T13:32:32;5.30;;;2.77;;
20076;SDS011;12348;42.710;23.378;2023-05-07T13:34:59;8.00;;;3.13;;
20076;SDS011;12348;42.710;23.378;2023-05-07T13:37:26;5.17;;;2.77;;
20076;SDS011;12348;42.710;23.378;2023-05-07T13:39:53;4.20;;;2.90;;
20076;SDS011;12348;42.710;23.378;2023-05-07T13:42:20;2.90;;;2.20;;
20076;SDS011;12348;42.710;23.378;2023-05-07T13:44:48;2.90;;;2.40;;
20076;SDS011;12348;42.710;23.378;2023-05-07T13:47:14;3.13;;;2.83;;
20076;SDS011;12348;42.710;23.378;2023-05-07T13:49:41;3.00;;;2.50;;
20076;SDS011;12348;42.710;23.378;2023-05-07T13:52:08;3.50;;;2.57;;
20076;SDS011;12348;42.710;23.378;2023-05-07T13:54:34;2.60;;;2.40;;
20076;SDS011;12348;42.710;23.378;2023-05-07T13:57:01;3.03;;;2.70;;
20076;SDS011;12348;42.710;23.378;2023-05-07T13:59:28;3.43;;;2.40;;
20076;SDS011;12348;42.710;23.378;2023-05-07T14:01:57;3.63;;;2.90;;
20076;SDS011;12348;42.710;23.378;2023-05-07T14:04:24;4.87;;;2.47;;
20076;SDS011;12348;42.710;23.378;2023-05-07T14:06:51;5.43;;;2.70;;
20076;SDS011;12348;42.710;23.378;2023-05-07T14:09:18;3.23;;;2.30;;
20076;SDS011;12348;42.710;23.378;2023-05-07T14:11:45;3.53;;;2.53;;
20076;SDS011;12348;42.710;23.378;2023-05-07T14:14:12;4.70;;;3.00;;
20076;SDS011;12348;42.710;23.378;2023-05-07T14:16:39;3.03;;;2.13;;
20076;SDS011;12348;42.710;23.378;2023-05-07T14:19:07;4.20;;;2.57;;
20076;SDS011;12348;42.710;23.378;2023-05-07T14:21:34;4.57;;;2.67;;
20076;SDS011;12348;42.710;23.378;2023-05-07T14:24:01;3.03;;;2.80;;
20076;SDS011;12348;42.710;23.378;2023-05-07T14:26:28;5.27;;;2.97;;
20076;SDS011;12348;42.710;23.378;2023-05-07T14:28:55;3.63;;;2.87;;
20076;SDS011;12348;42.710;23.378;2023-05-07T14:31:23;3.23;;;2.37;;
20076;SDS011;12348;42.710;23.378;2023-05-07T14:33:50;5.27;;;2.87;;
20076;SDS011;12348;42.710;23.378;2023-05-07T14:36:19;7.47;;;3.23;;
20076;SDS011;12348;42.710;23.378;2023-05-07T14:38:47;3.80;;;2.50;;
20076;SDS011;12348;42.710;23.378;2023-05-07T14:41:15;6.53;;;2.57;;
20076;SDS011;12348;42.710;23.378;2023-05-07T14:43:41;3.30;;;2.57;;
20076;SDS011;12348;42.710;23.378;2023-05-07T14:46:09;3.47;;;2.70;;
20076;SDS011;12348;42.710;23.378;2023-05-07T14:48:35;3.77;;;2.83;;
20076;SDS011;12348;42.710;23.378;2023-05-07T14:51:02;4.67;;;2.70;;
20076;SDS011;12348;42.710;23.378;2023-05-07T14:53:30;4.53;;;3.67;;
20076;SDS011;12348;42.710;23.378;2023-05-07T14:55:57;3.23;;;2.90;;
20076;SDS011;12348;42.710;23.378;2023-05-07T14:58:25;5.93;;;2.73;;
20076;SDS011;12348;42.710;23.378;2023-05-07T15:00:51;7.50;;;3.20;;
20076;SDS011;12348;42.710;23.378;2023-05-07T15:03:18;4.07;;;2.83;;
20076;SDS011;12348;42.710;23.378;2023-05-07T15:05:45;2.50;;;2.30;;
20076;SDS011;12348;42.710;23.378;2023-05-07T15:08:12;9.53;;;6.50;;
20076;SDS011;12348;42.710;23.378;2023-05-07T15:10:40;6.60;;;3.70;;